sensor_id;sensor_type;location;lat;lon;timestamp;temperature;humidity
7216;DHT22;3649;48.798;9.798;2023-11-19T00:00:32;11.40;99.90
7216;DHT22;3649;48.798;9.798;2023-11-19T00:03:21;11.30;99.90
7216;DHT22;3649;48.798;9.798;2023-11-19T00:05:48;11.30;99.90
7216;DHT22;3649;48.798;9.798;2023-11-19T00:08:16;11.50;99.90
7216;DHT22;3649;48.798;9.798;2023-11-19T00:10:42;11.40;99.90
7216;DHT22;3649;48.798;9.798;2023-11-19T00:13:09;11.30;99.90
7216;DHT22;3649;48.798;9.798;2023-11-19T00:15:37;11.40;99.90
7216;DHT22;3649;48.798;9.798;2023-11-19T00:18:04;11.40;99.90
7216;DHT22;3649;48.798;9.798;2023-11-19T00:20:31;11.40;99.90
7216;DHT22;3649;48.798;9.798;2023-11-19T00:22:58;11.40;99.90
7216;DHT22;3649;48.798;9.798;2023-11-19T00:25:25;11.30;99.90
7216;DHT22;3649;48.798;9.798;2023-11-19T00:27:52;11.40;99.90
7216;DHT22;3649;48.798;9.798;2023-11-19T00:30:20;11.40;99.90
7216;DHT22;3649;48.798;9.798;2023-11-19T00:32:47;11.40;99.90
7216;DHT22;3649;48.798;9.798;2023-11-19T00:35:14;11.40;99.90
7216;DHT22;3649;48.798;9.798;2023-11-19T00:37:42;11.50;99.90
7216;DHT22;3649;48.798;9.798;2023-11-19T00:40:15;11.50;99.90
7216;DHT22;3649;48.798;9.798;2023-11-19T00:42:44;11.40;99.90
7216;DHT22;3649;48.798;9.798;2023-11-19T00:45:11;11.40;99.90
7216;DHT22;3649;48.798;9.798;2023-11-19T00:47:39;11.40;99.90
7216;DHT22;3649;48.798;9.798;2023-11-19T00:50:07;11.50;99.90
7216;DHT22;3649;48.798;9.798;2023-11-19T00:52:38;11.40;99.90
7216;DHT22;3649;48.798;9.798;2023-11-19T00:55:06;11.50;99.90
7216;DHT22;3649;48.798;9.798;2023-11-19T00:57:34;11.50;99.90
7216;DHT22;3649;48.798;9.798;2023-11-19T01:00:02;11.50;99.90
7216;DHT22;3649;48.798;9.798;2023-11-19T01:02:35;11.50;99.90
7216;DHT22;3649;48.798;9.798;2023-11-19T01:05:03;11.50;99.90
7216;DHT22;3649;48.798;9.798;2023-11-19T01:07:30;11.50;99.90
7216;DHT22;3649;48.798;9.798;2023-11-19T01:09:57;11.50;99.90
7216;DHT22;3649;48.798;9.798;2023-11-19T01:12:24;11.50;99.90
7216;DHT22;3649;48.798;9.798;2023-11-19T01:14:51;11.50;99.90
7216;DHT22;3649;48.798;9.798;2023-11-19T01:17:18;11.50;99.90
7216;DHT22;3649;48.798;9.798;2023-11-19T01:19:45;11.60;99.90
7216;DHT22;3649;48.798;9.798;2023-11-19T01:22:12;11.60;99.90
7216;DHT22;3649;48.798;9.798;2023-11-19T01:24:39;11.60;99.90
7216;DHT22;3649;48.798;9.798;2023-11-19T01:27:05;11.60;99.90
7216;DHT22;3649;48.798;9.798;2023-11-19T01:29:32;11.50;99.90
7216;DHT22;3649;48.798;9.798;2023-11-19T01:31:59;11.60;99.90
7216;DHT22;3649;48.798;9.798;2023-11-19T01:34:26;11.60;99.90
7216;DHT22;3649;48.798;9.798;2023-11-19T01:36:53;11.60;99.90
7216;DHT22;3649;48.798;9.798;2023-11-19T01:39:20;11.60;99.90
7216;DHT22;3649;48.798;9.798;2023-11-19T01:41:47;11.60;99.90
7216;DHT22;3649;48.798;9.798;2023-11-19T01:44:14;11.60;99.90
7216;DHT22;3649;48.798;9.798;2023-11-19T01:46:43;11.70;99.90
7216;DHT22;3649;48.798;9.798;2023-11-19T01:49:11;11.60;99.90
7216;DHT22;3649;48.798;9.798;2023-11-19T01:51:39;11.60;99.90
7216;DHT22;3649;48.798;9.798;2023-11-19T01:54:07;11.60;99.90
7216;DHT22;3649;48.798;9.798;2023-11-19T01:56:35;11.60;99.90
7216;DHT22;3649;48.798;9.798;2023-11-19T01:59:03;11.60;99.90
7216;DHT22;3649;48.798;9.798;2023-11-19T02:01:30;11.60;99.90
7216;DHT22;3649;48.798;9.798;2023-11-19T02:03:59;11.70;99.90
7216;DHT22;3649;48.798;9.798;2023-11-19T02:06:28;11.70;99.90
7216;DHT22;3649;48.798;9.798;2023-11-19T02:08:55;11.70;99.90
7216;DHT22;3649;48.798;9.798;2023-11-19T02:11:21;11.80;99.90
7216;DHT22;3649;48.798;9.798;2023-11-19T02:13:48;11.80;99.90
7216;DHT22;3649;48.798;9.798;2023-11-19T02:16:15;11.90;99.90
7216;DHT22;3649;48.798;9.798;2023-11-19T02:18:42;11.90;99.90
7216;DHT22;3649;48.798;9.798;2023-11-19T02:21:09;11.80;99.90
7216;DHT22;3649;48.798;9.798;2023-11-19T02:23:37;11.80;99.90
7216;DHT22;3649;48.798;9.798;2023-11-19T02:28:33;11.80;99.90
7216;DHT22;3649;48.798;9.798;2023-11-19T02:31:00;11.80;99.90
7216;DHT22;3649;48.798;9.798;2023-11-19T02:33:27;11.80;99.90
7216;DHT22;3649;48.798;9.798;2023-11-19T02:35:54;11.80;99.90
7216;DHT22;3649;48.798;9.798;2023-11-19T02:38:21;11.80;99.90
7216;DHT22;3649;48.798;9.798;2023-11-19T02:40:48;11.80;99.90
7216;DHT22;3649;48.798;9.798;2023-11-19T02:43:16;11.80;99.90
7216;DHT22;3649;48.798;9.798;2023-11-19T02:45:43;11.80;99.90
7216;DHT22;3649;48.798;9.798;2023-11-19T02:48:12;11.90;99.90
7216;DHT22;3649;48.798;9.798;2023-11-19T02:50:42;11.80;99.90
7216;DHT22;3649;48.798;9.798;2023-11-19T02:53:08;11.90;99.90
7216;DHT22;3649;48.798;9.798;2023-11-19T02:55:35;11.90;99.90
7216;DHT22;3649;48.798;9.798;2023-11-19T02:58:05;11.90;99.90
7216;DHT22;3649;48.798;9.798;2023-11-19T03:00:46;11.90;99.90
7216;DHT22;3649;48.798;9.798;2023-11-19T03:03:19;11.90;99.90
7216;DHT22;3649;48.798;9.798;2023-11-19T03:05:49;11.90;99.90
7216;DHT22;3649;48.798;9.798;2023-11-19T03:08:16;11.90;99.90
7216;DHT22;3649;48.798;9.798;2023-11-19T03:10:46;11.90;99.90
7216;DHT22;3649;48.798;9.798;2023-11-19T03:13:14;12.20;99.90
7216;DHT22;3649;48.798;9.798;2023-11-19T03:15:41;11.90;99.90
7216;DHT22;3649;48.798;9.798;2023-11-19T03:18:08;11.80;99.90
7216;DHT22;3649;48.798;9.798;2023-11-19T03:20:35;11.90;99.90
7216;DHT22;3649;48.798;9.798;2023-11-19T03:23:02;12.00;99.90
7216;DHT22;3649;48.798;9.798;2023-11-19T03:25:29;12.00;99.90
7216;DHT22;3649;48.798;9.798;2023-11-19T03:28:03;12.00;99.90
7216;DHT22;3649;48.798;9.798;2023-11-19T03:30:31;12.00;99.90
7216;DHT22;3649;48.798;9.798;2023-11-19T03:33:00;12.10;99.90
7216;DHT22;3649;48.798;9.798;2023-11-19T03:35:28;12.10;99.90
7216;DHT22;3649;48.798;9.798;2023-11-19T03:37:55;12.10;99.90
7216;DHT22;3649;48.798;9.798;2023-11-19T03:40:22;12.00;99.90
7216;DHT22;3649;48.798;9.798;2023-11-19T03:42:51;12.60;99.90
7216;DHT22;3649;48.798;9.798;2023-11-19T03:45:18;12.10;99.90
7216;DHT22;3649;48.798;9.798;2023-11-19T03:47:44;12.10;99.90
7216;DHT22;3649;48.798;9.798;2023-11-19T03:50:11;12.10;99.90
7216;DHT22;3649;48.798;9.798;2023-11-19T03:52:38;12.20;99.90
7216;DHT22;3649;48.798;9.798;2023-11-19T03:55:08;12.10;99.90
7216;DHT22;3649;48.798;9.798;2023-11-19T03:57:35;12.30;99.90
7216;DHT22;3649;48.798;9.798;2023-11-19T04:00:02;12.20;99.90
7216;DHT22;3649;48.798;9.798;2023-11-19T04:02:37;12.10;99.90
7216;DHT22;3649;48.798;9.798;2023-11-19T04:05:04;12.10;99.90
7216;DHT22;3649;48.798;9.798;2023-11-19T04:07:34;12.20;99.90
7216;DHT22;3649;48.798;9.798;2023-11-19T04:10:01;12.20;99.90
7216;DHT22;3649;48.798;9.798;2023-11-19T04:12:28;12.20;99.90
7216;DHT22;3649;48.798;9.798;2023-11-19T04:14:55;12.30;99.90
7216;DHT22;3649;48.798;9.798;2023-11-19T04:17:26;12.40;99.90
7216;DHT22;3649;48.798;9.798;2023-11-19T04:19:52;12.40;99.90
7216;DHT22;3649;48.798;9.798;2023-11-19T04:22:19;12.50;99.90
7216;DHT22;3649;48.798;9.798;2023-11-19T04:24:46;12.50;99.90
7216;DHT22;3649;48.798;9.798;2023-11-19T04:27:14;12.50;99.90
7216;DHT22;3649;48.798;9.798;2023-11-19T04:29:41;12.50;99.90
7216;DHT22;3649;48.798;9.798;2023-11-19T04:32:08;12.40;99.90
7216;DHT22;3649;48.798;9.798;2023-11-19T04:34:35;12.50;99.90
7216;DHT22;3649;48.798;9.798;2023-11-19T04:37:04;12.60;99.90
7216;DHT22;3649;48.798;9.798;2023-11-19T04:39:34;12.60;99.90
7216;DHT22;3649;48.798;9.798;2023-11-19T04:42:01;12.50;99.90
7216;DHT22;3649;48.798;9.798;2023-11-19T04:44:27;12.50;99.90
7216;DHT22;3649;48.798;9.798;2023-11-19T04:46:56;12.60;99.90
7216;DHT22;3649;48.798;9.798;2023-11-19T04:49:24;12.50;99.90
7216;DHT22;3649;48.798;9.798;2023-11-19T04:51:54;12.70;99.90
7216;DHT22;3649;48.798;9.798;2023-11-19T04:54:20;12.60;99.90
7216;DHT22;3649;48.798;9.798;2023-11-19T04:56:47;12.60;99.90
7216;DHT22;3649;48.798;9.798;2023-11-19T04:59:15;12.70;99.90
7216;DHT22;3649;48.798;9.798;2023-11-19T05:01:46;12.70;99.90
7216;DHT22;3649;48.798;9.798;2023-11-19T05:04:14;12.70;99.90
7216;DHT22;3649;48.798;9.798;2023-11-19T05:06:42;12.80;99.90
7216;DHT22;3649;48.798;9.798;2023-11-19T05:09:09;12.80;99.90
7216;DHT22;3649;48.798;9.798;2023-11-19T05:11:36;12.80;99.90
7216;DHT22;3649;48.798;9.798;2023-11-19T05:14:17;12.80;99.90
7216;DHT22;3649;48.798;9.798;2023-11-19T05:16:45;12.80;99.90
7216;DHT22;3649;48.798;9.798;2023-11-19T05:19:13;13.00;99.90
7216;DHT22;3649;48.798;9.798;2023-11-19T05:21:44;12.80;99.90
7216;DHT22;3649;48.798;9.798;2023-11-19T05:24:11;12.80;99.90
7216;DHT22;3649;48.798;9.798;2023-11-19T05:26:41;12.90;99.90
7216;DHT22;3649;48.798;9.798;2023-11-19T05:29:08;12.90;99.90
7216;DHT22;3649;48.798;9.798;2023-11-19T05:31:34;12.90;99.90
7216;DHT22;3649;48.798;9.798;2023-11-19T05:34:03;13.00;99.90
7216;DHT22;3649;48.798;9.798;2023-11-19T05:36:30;13.00;99.90
7216;DHT22;3649;48.798;9.798;2023-11-19T05:38:57;12.90;99.90
7216;DHT22;3649;48.798;9.798;2023-11-19T05:41:24;12.90;99.90
7216;DHT22;3649;48.798;9.798;2023-11-19T05:43:51;13.00;99.90
7216;DHT22;3649;48.798;9.798;2023-11-19T05:46:18;13.00;99.90
7216;DHT22;3649;48.798;9.798;2023-11-19T05:48:47;13.10;99.90
7216;DHT22;3649;48.798;9.798;2023-11-19T05:51:14;13.00;99.90
7216;DHT22;3649;48.798;9.798;2023-11-19T05:53:44;13.10;99.90
7216;DHT22;3649;48.798;9.798;2023-11-19T05:56:12;13.10;99.90
7216;DHT22;3649;48.798;9.798;2023-11-19T05:58:40;13.10;99.90
7216;DHT22;3649;48.798;9.798;2023-11-19T06:01:07;13.10;99.90
7216;DHT22;3649;48.798;9.798;2023-11-19T06:03:35;13.20;99.90
7216;DHT22;3649;48.798;9.798;2023-11-19T06:06:04;13.30;99.90
7216;DHT22;3649;48.798;9.798;2023-11-19T06:08:32;13.30;99.90
7216;DHT22;3649;48.798;9.798;2023-11-19T06:10:59;13.40;99.90
7216;DHT22;3649;48.798;9.798;2023-11-19T06:13:28;13.30;99.90
7216;DHT22;3649;48.798;9.798;2023-11-19T06:15:57;13.30;99.90
7216;DHT22;3649;48.798;9.798;2023-11-19T06:18:24;13.40;99.90
7216;DHT22;3649;48.798;9.798;2023-11-19T06:20:52;13.40;99.90
7216;DHT22;3649;48.798;9.798;2023-11-19T06:23:18;13.40;99.90
7216;DHT22;3649;48.798;9.798;2023-11-19T06:25:46;13.30;99.90
7216;DHT22;3649;48.798;9.798;2023-11-19T06:28:13;13.40;99.90
7216;DHT22;3649;48.798;9.798;2023-11-19T06:30:40;13.40;99.90
7216;DHT22;3649;48.798;9.798;2023-11-19T06:33:08;13.40;99.90
7216;DHT22;3649;48.798;9.798;2023-11-19T06:35:35;13.40;99.90
7216;DHT22;3649;48.798;9.798;2023-11-19T06:38:05;13.40;99.90
7216;DHT22;3649;48.798;9.798;2023-11-19T06:40:35;13.50;99.90
7216;DHT22;3649;48.798;9.798;2023-11-19T06:43:03;13.50;99.90
7216;DHT22;3649;48.798;9.798;2023-11-19T06:45:30;13.50;99.90
7216;DHT22;3649;48.798;9.798;2023-11-19T06:47:58;13.60;99.90
7216;DHT22;3649;48.798;9.798;2023-11-19T06:50:27;13.60;99.90
7216;DHT22;3649;48.798;9.798;2023-11-19T06:52:54;13.60;99.90
7216;DHT22;3649;48.798;9.798;2023-11-19T06:55:21;13.70;99.90
7216;DHT22;3649;48.798;9.798;2023-11-19T06:57:48;13.70;99.90
7216;DHT22;3649;48.798;9.798;2023-11-19T07:00:15;13.70;99.90
7216;DHT22;3649;48.798;9.798;2023-11-19T07:02:42;13.70;99.90
7216;DHT22;3649;48.798;9.798;2023-11-19T07:05:11;13.70;99.90
7216;DHT22;3649;48.798;9.798;2023-11-19T07:07:40;13.80;99.90
7216;DHT22;3649;48.798;9.798;2023-11-19T07:10:07;13.70;99.90
7216;DHT22;3649;48.798;9.798;2023-11-19T07:12:36;13.80;99.90
7216;DHT22;3649;48.798;9.798;2023-11-19T07:15:04;13.80;99.90
7216;DHT22;3649;48.798;9.798;2023-11-19T07:17:31;13.70;99.90
7216;DHT22;3649;48.798;9.798;2023-11-19T07:19:58;13.80;99.90
7216;DHT22;3649;48.798;9.798;2023-11-19T07:22:26;13.80;99.90
7216;DHT22;3649;48.798;9.798;2023-11-19T07:24:56;13.80;99.90
7216;DHT22;3649;48.798;9.798;2023-11-19T07:27:23;13.70;99.90
7216;DHT22;3649;48.798;9.798;2023-11-19T07:29:51;13.80;99.90
7216;DHT22;3649;48.798;9.798;2023-11-19T07:32:18;13.80;99.90
7216;DHT22;3649;48.798;9.798;2023-11-19T07:34:45;13.70;99.90
7216;DHT22;3649;48.798;9.798;2023-11-19T07:37:12;13.70;99.90
7216;DHT22;3649;48.798;9.798;2023-11-19T07:39:39;13.70;99.90
7216;DHT22;3649;48.798;9.798;2023-11-19T07:42:08;13.80;99.90
7216;DHT22;3649;48.798;9.798;2023-11-19T07:44:36;13.80;99.90
7216;DHT22;3649;48.798;9.798;2023-11-19T07:47:03;13.80;99.90
7216;DHT22;3649;48.798;9.798;2023-11-19T07:49:30;13.70;99.90
7216;DHT22;3649;48.798;9.798;2023-11-19T07:51:58;13.70;99.90
7216;DHT22;3649;48.798;9.798;2023-11-19T07:54:24;13.70;99.90
7216;DHT22;3649;48.798;9.798;2023-11-19T07:56:51;13.80;99.90
7216;DHT22;3649;48.798;9.798;2023-11-19T07:59:19;13.80;99.90
7216;DHT22;3649;48.798;9.798;2023-11-19T08:01:46;13.90;99.90
7216;DHT22;3649;48.798;9.798;2023-11-19T08:04:12;13.90;99.90
7216;DHT22;3649;48.798;9.798;2023-11-19T08:06:40;13.90;99.90
7216;DHT22;3649;48.798;9.798;2023-11-19T08:09:07;13.90;99.90
7216;DHT22;3649;48.798;9.798;2023-11-19T08:11:43;13.90;99.90
7216;DHT22;3649;48.798;9.798;2023-11-19T08:14:10;14.00;99.90
7216;DHT22;3649;48.798;9.798;2023-11-19T08:16:39;14.00;99.90
7216;DHT22;3649;48.798;9.798;2023-11-19T08:19:06;13.90;99.90
7216;DHT22;3649;48.798;9.798;2023-11-19T08:21:33;13.90;99.90
7216;DHT22;3649;48.798;9.798;2023-11-19T08:24:00;14.00;99.90
7216;DHT22;3649;48.798;9.798;2023-11-19T08:26:27;14.00;99.90
7216;DHT22;3649;48.798;9.798;2023-11-19T08:28:54;14.00;99.90
7216;DHT22;3649;48.798;9.798;2023-11-19T08:31:21;14.10;99.90
7216;DHT22;3649;48.798;9.798;2023-11-19T08:33:48;14.10;99.90
7216;DHT22;3649;48.798;9.798;2023-11-19T08:36:18;14.10;99.90
7216;DHT22;3649;48.798;9.798;2023-11-19T08:38:44;14.10;99.90
7216;DHT22;3649;48.798;9.798;2023-11-19T08:41:13;14.10;99.90
7216;DHT22;3649;48.798;9.798;2023-11-19T08:43:39;14.20;99.90
7216;DHT22;3649;48.798;9.798;2023-11-19T08:46:11;14.20;99.90
7216;DHT22;3649;48.798;9.798;2023-11-19T08:48:39;14.20;99.90
7216;DHT22;3649;48.798;9.798;2023-11-19T08:51:06;14.30;99.90
7216;DHT22;3649;48.798;9.798;2023-11-19T08:53:33;14.30;99.90
7216;DHT22;3649;48.798;9.798;2023-11-19T08:56:00;14.30;99.90
7216;DHT22;3649;48.798;9.798;2023-11-19T08:58:29;14.40;99.90
7216;DHT22;3649;48.798;9.798;2023-11-19T09:00:57;14.40;99.90
7216;DHT22;3649;48.798;9.798;2023-11-19T09:03:24;14.50;99.90
7216;DHT22;3649;48.798;9.798;2023-11-19T09:05:57;14.50;99.90
7216;DHT22;3649;48.798;9.798;2023-11-19T09:08:24;14.50;99.90
7216;DHT22;3649;48.798;9.798;2023-11-19T09:10:51;14.50;99.90
7216;DHT22;3649;48.798;9.798;2023-11-19T09:13:18;14.60;99.90
7216;DHT22;3649;48.798;9.798;2023-11-19T09:15:45;14.60;99.90
7216;DHT22;3649;48.798;9.798;2023-11-19T09:18:12;14.70;99.90
7216;DHT22;3649;48.798;9.798;2023-11-19T09:20:39;14.70;99.90
7216;DHT22;3649;48.798;9.798;2023-11-19T09:23:06;14.80;99.90
7216;DHT22;3649;48.798;9.798;2023-11-19T09:25:34;14.70;99.90
7216;DHT22;3649;48.798;9.798;2023-11-19T09:28:04;14.70;99.90
7216;DHT22;3649;48.798;9.798;2023-11-19T09:30:31;14.70;99.90
7216;DHT22;3649;48.798;9.798;2023-11-19T09:33:00;14.70;99.90
7216;DHT22;3649;48.798;9.798;2023-11-19T09:35:28;14.80;99.90
7216;DHT22;3649;48.798;9.798;2023-11-19T09:37:55;14.80;99.90
7216;DHT22;3649;48.798;9.798;2023-11-19T09:40:22;14.80;99.90
7216;DHT22;3649;48.798;9.798;2023-11-19T09:42:49;14.80;99.90
7216;DHT22;3649;48.798;9.798;2023-11-19T09:45:17;14.90;99.90
7216;DHT22;3649;48.798;9.798;2023-11-19T09:47:47;14.90;99.90
7216;DHT22;3649;48.798;9.798;2023-11-19T09:50:18;14.90;99.90
7216;DHT22;3649;48.798;9.798;2023-11-19T09:52:46;14.90;99.90
7216;DHT22;3649;48.798;9.798;2023-11-19T09:55:14;14.90;99.90
7216;DHT22;3649;48.798;9.798;2023-11-19T09:57:41;15.00;99.90
7216;DHT22;3649;48.798;9.798;2023-11-19T10:00:10;15.00;99.90
7216;DHT22;3649;48.798;9.798;2023-11-19T10:02:39;15.00;99.90
7216;DHT22;3649;48.798;9.798;2023-11-19T10:05:07;15.00;99.90
7216;DHT22;3649;48.798;9.798;2023-11-19T10:07:34;15.00;99.90
7216;DHT22;3649;48.798;9.798;2023-11-19T10:10:02;15.00;99.90
7216;DHT22;3649;48.798;9.798;2023-11-19T10:12:30;15.00;99.90
7216;DHT22;3649;48.798;9.798;2023-11-19T10:14:58;15.00;99.90
7216;DHT22;3649;48.798;9.798;2023-11-19T10:17:28;15.00;99.90
7216;DHT22;3649;48.798;9.798;2023-11-19T10:19:58;14.90;99.90
7216;DHT22;3649;48.798;9.798;2023-11-19T10:22:27;14.90;99.90
7216;DHT22;3649;48.798;9.798;2023-11-19T10:24:54;15.00;99.90
7216;DHT22;3649;48.798;9.798;2023-11-19T10:27:24;15.00;99.90
7216;DHT22;3649;48.798;9.798;2023-11-19T10:29:52;14.90;99.90
7216;DHT22;3649;48.798;9.798;2023-11-19T10:32:19;15.00;99.90
7216;DHT22;3649;48.798;9.798;2023-11-19T10:35:05;15.00;99.90
7216;DHT22;3649;48.798;9.798;2023-11-19T10:37:33;15.10;99.90
7216;DHT22;3649;48.798;9.798;2023-11-19T10:40:02;15.20;99.90
7216;DHT22;3649;48.798;9.798;2023-11-19T10:42:32;15.20;99.90
7216;DHT22;3649;48.798;9.798;2023-11-19T10:44:59;15.20;99.90
7216;DHT22;3649;48.798;9.798;2023-11-19T10:47:26;15.30;99.90
7216;DHT22;3649;48.798;9.798;2023-11-19T10:49:55;15.40;99.90
7216;DHT22;3649;48.798;9.798;2023-11-19T10:52:23;15.40;99.90
7216;DHT22;3649;48.798;9.798;2023-11-19T10:54:56;15.50;99.90
7216;DHT22;3649;48.798;9.798;2023-11-19T10:57:30;15.50;99.90
7216;DHT22;3649;48.798;9.798;2023-11-19T11:00:02;15.50;99.90
7216;DHT22;3649;48.798;9.798;2023-11-19T11:02:34;15.60;99.90
7216;DHT22;3649;48.798;9.798;2023-11-19T11:05:02;15.50;99.90
7216;DHT22;3649;48.798;9.798;2023-11-19T11:07:31;15.60;99.90
7216;DHT22;3649;48.798;9.798;2023-11-19T11:10:07;15.60;99.90
7216;DHT22;3649;48.798;9.798;2023-11-19T11:12:36;15.70;99.90
7216;DHT22;3649;48.798;9.798;2023-11-19T11:15:06;15.70;99.90
7216;DHT22;3649;48.798;9.798;2023-11-19T11:17:34;15.70;99.90
7216;DHT22;3649;48.798;9.798;2023-11-19T11:20:01;15.70;99.90
7216;DHT22;3649;48.798;9.798;2023-11-19T11:22:34;15.70;99.90
7216;DHT22;3649;48.798;9.798;2023-11-19T11:25:35;15.80;99.90
7216;DHT22;3649;48.798;9.798;2023-11-19T11:39:29;16.00;99.90
7216;DHT22;3649;48.798;9.798;2023-11-19T11:45:08;16.00;99.90
7216;DHT22;3649;48.798;9.798;2023-11-19T11:50:16;16.00;99.90
7216;DHT22;3649;48.798;9.798;2023-11-19T11:58:26;16.10;99.90
7216;DHT22;3649;48.798;9.798;2023-11-19T12:00:53;16.10;99.90
7216;DHT22;3649;48.798;9.798;2023-11-19T12:03:21;16.10;99.90
7216;DHT22;3649;48.798;9.798;2023-11-19T12:05:49;16.10;99.90
7216;DHT22;3649;48.798;9.798;2023-11-19T12:08:24;16.10;99.90
7216;DHT22;3649;48.798;9.798;2023-11-19T12:10:56;16.20;99.90
7216;DHT22;3649;48.798;9.798;2023-11-19T12:13:54;16.20;99.90
7216;DHT22;3649;48.798;9.798;2023-11-19T12:16:25;16.20;99.90
7216;DHT22;3649;48.798;9.798;2023-11-19T12:18:54;16.30;99.90
7216;DHT22;3649;48.798;9.798;2023-11-19T12:21:31;16.30;99.90
7216;DHT22;3649;48.798;9.798;2023-11-19T12:23:59;16.30;99.90
7216;DHT22;3649;48.798;9.798;2023-11-19T12:26:35;16.30;99.90
7216;DHT22;3649;48.798;9.798;2023-11-19T12:29:02;16.40;99.90
7216;DHT22;3649;48.798;9.798;2023-11-19T12:31:34;16.30;99.90
7216;DHT22;3649;48.798;9.798;2023-11-19T12:34:06;16.30;99.90
7216;DHT22;3649;48.798;9.798;2023-11-19T12:36:34;16.30;99.90
7216;DHT22;3649;48.798;9.798;2023-11-19T12:39:01;16.30;99.90
7216;DHT22;3649;48.798;9.798;2023-11-19T12:41:28;16.20;99.90
7216;DHT22;3649;48.798;9.798;2023-11-19T12:44:09;16.30;99.90
7216;DHT22;3649;48.798;9.798;2023-11-19T12:46:36;16.20;99.90
7216;DHT22;3649;48.798;9.798;2023-11-19T12:49:03;16.20;99.90
7216;DHT22;3649;48.798;9.798;2023-11-19T12:51:33;16.30;99.90
7216;DHT22;3649;48.798;9.798;2023-11-19T12:54:00;16.30;99.90
7216;DHT22;3649;48.798;9.798;2023-11-19T12:56:27;16.30;99.90
7216;DHT22;3649;48.798;9.798;2023-11-19T12:58:54;16.40;99.90
7216;DHT22;3649;48.798;9.798;2023-11-19T13:01:21;16.50;99.90
7216;DHT22;3649;48.798;9.798;2023-11-19T13:03:49;16.50;99.90
7216;DHT22;3649;48.798;9.798;2023-11-19T13:06:18;16.60;99.90
7216;DHT22;3649;48.798;9.798;2023-11-19T13:08:49;16.60;99.90
7216;DHT22;3649;48.798;9.798;2023-11-19T13:11:35;16.60;99.90
7216;DHT22;3649;48.798;9.798;2023-11-19T13:14:04;16.70;99.90
7216;DHT22;3649;48.798;9.798;2023-11-19T13:16:32;16.70;99.90
7216;DHT22;3649;48.798;9.798;2023-11-19T13:18:59;16.70;99.90
7216;DHT22;3649;48.798;9.798;2023-11-19T13:21:27;16.70;99.90
7216;DHT22;3649;48.798;9.798;2023-11-19T13:23:57;16.70;99.90
7216;DHT22;3649;48.798;9.798;2023-11-19T13:26:24;16.70;99.90
7216;DHT22;3649;48.798;9.798;2023-11-19T13:28:51;16.70;99.90
7216;DHT22;3649;48.798;9.798;2023-11-19T13:31:18;16.80;99.90
7216;DHT22;3649;48.798;9.798;2023-11-19T13:33:45;16.80;99.90
7216;DHT22;3649;48.798;9.798;2023-11-19T13:36:12;16.80;99.90
7216;DHT22;3649;48.798;9.798;2023-11-19T13:38:43;16.80;99.90
7216;DHT22;3649;48.798;9.798;2023-11-19T13:41:14;16.80;99.90
7216;DHT22;3649;48.798;9.798;2023-11-19T13:43:41;16.70;99.90
7216;DHT22;3649;48.798;9.798;2023-11-19T13:46:08;16.70;99.90
7216;DHT22;3649;48.798;9.798;2023-11-19T13:48:38;16.60;99.90
7216;DHT22;3649;48.798;9.798;2023-11-19T13:51:06;16.60;99.90
7216;DHT22;3649;48.798;9.798;2023-11-19T13:53:33;16.60;99.90
7216;DHT22;3649;48.798;9.798;2023-11-19T13:56:03;16.60;99.90
7216;DHT22;3649;48.798;9.798;2023-11-19T13:58:30;16.50;99.90
7216;DHT22;3649;48.798;9.798;2023-11-19T14:00:57;16.50;99.90
7216;DHT22;3649;48.798;9.798;2023-11-19T14:03:24;16.50;99.90
7216;DHT22;3649;48.798;9.798;2023-11-19T14:05:51;16.50;99.90
7216;DHT22;3649;48.798;9.798;2023-11-19T14:08:21;16.50;99.90
7216;DHT22;3649;48.798;9.798;2023-11-19T14:10:52;16.40;99.90
7216;DHT22;3649;48.798;9.798;2023-11-19T14:13:22;16.50;99.90
7216;DHT22;3649;48.798;9.798;2023-11-19T14:15:50;16.40;99.90
7216;DHT22;3649;48.798;9.798;2023-11-19T14:18:18;16.40;99.90
7216;DHT22;3649;48.798;9.798;2023-11-19T14:20:45;16.40;99.90
7216;DHT22;3649;48.798;9.798;2023-11-19T14:23:12;16.30;99.90
7216;DHT22;3649;48.798;9.798;2023-11-19T14:25:39;16.40;99.90
7216;DHT22;3649;48.798;9.798;2023-11-19T14:28:06;16.30;99.90
7216;DHT22;3649;48.798;9.798;2023-11-19T14:30:34;16.30;99.90
7216;DHT22;3649;48.798;9.798;2023-11-19T14:33:01;16.40;99.90
7216;DHT22;3649;48.798;9.798;2023-11-19T14:35:30;16.40;99.90
7216;DHT22;3649;48.798;9.798;2023-11-19T14:37:57;16.40;99.90
7216;DHT22;3649;48.798;9.798;2023-11-19T14:40:24;16.40;99.90
7216;DHT22;3649;48.798;9.798;2023-11-19T14:43:08;16.40;99.90
7216;DHT22;3649;48.798;9.798;2023-11-19T14:45:39;16.30;99.90
7216;DHT22;3649;48.798;9.798;2023-11-19T14:48:15;16.30;99.90
7216;DHT22;3649;48.798;9.798;2023-11-19T14:50:43;16.30;99.90
7216;DHT22;3649;48.798;9.798;2023-11-19T14:53:11;16.20;99.90
7216;DHT22;3649;48.798;9.798;2023-11-19T14:55:38;16.20;99.90
7216;DHT22;3649;48.798;9.798;2023-11-19T14:58:04;16.10;99.90
7216;DHT22;3649;48.798;9.798;2023-11-19T15:00:37;16.10;99.90
7216;DHT22;3649;48.798;9.798;2023-11-19T15:03:04;16.10;99.90
7216;DHT22;3649;48.798;9.798;2023-11-19T15:05:33;16.10;99.90
7216;DHT22;3649;48.798;9.798;2023-11-19T15:08:01;16.00;99.90
7216;DHT22;3649;48.798;9.798;2023-11-19T15:10:30;16.00;99.90
7216;DHT22;3649;48.798;9.798;2023-11-19T15:12:56;16.10;99.90
7216;DHT22;3649;48.798;9.798;2023-11-19T15:15:24;16.00;99.90
7216;DHT22;3649;48.798;9.798;2023-11-19T15:17:54;16.00;99.90
7216;DHT22;3649;48.798;9.798;2023-11-19T15:20:21;16.00;99.90
7216;DHT22;3649;48.798;9.798;2023-11-19T15:22:48;15.90;99.90
7216;DHT22;3649;48.798;9.798;2023-11-19T15:25:15;15.90;99.90
7216;DHT22;3649;48.798;9.798;2023-11-19T15:27:42;15.80;99.90
7216;DHT22;3649;48.798;9.798;2023-11-19T15:30:09;15.70;99.90
7216;DHT22;3649;48.798;9.798;2023-11-19T15:32:37;15.70;99.90
7216;DHT22;3649;48.798;9.798;2023-11-19T15:35:06;15.70;99.90
7216;DHT22;3649;48.798;9.798;2023-11-19T15:37:34;15.70;99.90
7216;DHT22;3649;48.798;9.798;2023-11-19T15:40:02;15.70;99.90
7216;DHT22;3649;48.798;9.798;2023-11-19T15:42:35;15.60;99.90
7216;DHT22;3649;48.798;9.798;2023-11-19T15:45:02;15.70;99.90
7216;DHT22;3649;48.798;9.798;2023-11-19T15:47:35;15.70;99.90
7216;DHT22;3649;48.798;9.798;2023-11-19T15:50:03;15.60;99.90
7216;DHT22;3649;48.798;9.798;2023-11-19T15:52:31;15.60;99.90
7216;DHT22;3649;48.798;9.798;2023-11-19T15:54:58;15.50;99.90
7216;DHT22;3649;48.798;9.798;2023-11-19T15:57:25;15.50;99.90
7216;DHT22;3649;48.798;9.798;2023-11-19T15:59:53;15.40;99.90
7216;DHT22;3649;48.798;9.798;2023-11-19T16:02:20;15.40;99.90
7216;DHT22;3649;48.798;9.798;2023-11-19T16:04:47;15.40;99.90
7216;DHT22;3649;48.798;9.798;2023-11-19T16:07:15;15.40;99.90
7216;DHT22;3649;48.798;9.798;2023-11-19T16:09:42;15.40;99.90
7216;DHT22;3649;48.798;9.798;2023-11-19T16:12:09;15.40;99.90
7216;DHT22;3649;48.798;9.798;2023-11-19T16:14:37;15.40;99.90
7216;DHT22;3649;48.798;9.798;2023-11-19T16:17:04;15.40;99.90
7216;DHT22;3649;48.798;9.798;2023-11-19T16:19:31;15.40;99.90
7216;DHT22;3649;48.798;9.798;2023-11-19T16:21:58;15.40;99.90
7216;DHT22;3649;48.798;9.798;2023-11-19T16:24:32;15.30;99.90
7216;DHT22;3649;48.798;9.798;2023-11-19T16:26:58;15.30;99.90
7216;DHT22;3649;48.798;9.798;2023-11-19T16:29:25;15.40;99.90
7216;DHT22;3649;48.798;9.798;2023-11-19T16:31:52;15.30;99.90
7216;DHT22;3649;48.798;9.798;2023-11-19T16:34:19;15.30;99.90